Temp: 4.9°C   Baro: 1017.2mb
  Wind: 0.0mph   Dir: NNW (342°)
  Rain: 0.0mm (0.0mm/hr)
  Solar: 0W/m2  Hum: 84%

Historic data

Bath Spa Weather Station Historical Data
Daily Summary for July 1, 2021 Units:  Metric    English   Both
Daily Weekly Monthly Yearly Custom
  High: Low: Average:
Temperature: 10.8 °C 3.8 °C 7.8 °C
Dew Point: 8.4 °C 3.3 °C 6.4 °C
Humidity: 94% 80.3% 88%
Wind Speed: 19.3km/h 0km/h 6.6km/h
Wind Gust: 41.8km/h - -
Wind- - West
Pressure: 998.5 hPa 991.1 hPa -
Precipitation: 12.95 mm    
Historical Graphs
 
 
Tabular Data for July 1, 2021
Time Temperature Dew Point Pressure Wind Wind Speed Wind Gust Humidity Rainfall Rate (Hourly) solar
00:04 9.2 °C 6.8 °C 991.1 hPa SW 12.9 km/h 32.2 km/h 82% 0 mm 0 W/m2
00:09 9.2 °C 6.8 °C 991.1 hPa SW 17.9 km/h 29 km/h 82% 0 mm 0 W/m2
00:14 9.2 °C 6.8 °C 991.1 hPa WSW 16.6 km/h 29 km/h 82% 0 mm 0 W/m2
00:19 9.2 °C 6.8 °C 991.1 hPa WSW 10.3 km/h 27.4 km/h 82% 0 mm 0 W/m2
00:24 9.3 °C 6.8 °C 991.1 hPa WSW 15.9 km/h 29 km/h 82% 0 mm 0 W/m2
00:29 9.2 °C 6.8 °C 991.1 hPa SW 11.3 km/h 25.7 km/h 82% 0 mm 0 W/m2
00:34 9.2 °C 6.8 °C 991.4 hPa SW 16.7 km/h 25.7 km/h 82% 0 mm 0 W/m2
00:39 9.3 °C 6.8 °C 991.4 hPa WSW 16.4 km/h 29 km/h 82% 0 mm 0 W/m2
00:44 9.3 °C 6.9 °C 991.1 hPa WSW 15.3 km/h 30.6 km/h 82% 0 mm 0 W/m2
00:49 9.4 °C 7 °C 991.4 hPa WSW 16.7 km/h 41.8 km/h 82% 0 mm 0 W/m2
00:54 9.4 °C 7 °C 991.1 hPa SW 17.4 km/h 41.8 km/h 82% 0 mm 0 W/m2
00:59 9.4 °C 7 °C 991.1 hPa SW 14.8 km/h 27.4 km/h 82% 0 mm 0 W/m2
01:04 9.4 °C 7 °C 991.4 hPa WSW 17.4 km/h 29 km/h 82% 0 mm 0 W/m2
01:09 9.4 °C 7 °C 991.4 hPa WSW 18 km/h 30.6 km/h 82% 0 mm 0 W/m2
01:14 9.4 °C 7 °C 991.4 hPa SW 14.8 km/h 30.6 km/h 82% 0 mm 0 W/m2
01:19 9.5 °C 7.1 °C 991.4 hPa WSW 16.6 km/h 29 km/h 82% 0 mm 0 W/m2
01:24 9.5 °C 7.1 °C 991.4 hPa SW 12.2 km/h 22.5 km/h 82% 0 mm 0 W/m2
01:29 9.5 °C 7.1 °C 991.1 hPa WSW 11.4 km/h 22.5 km/h 82% 0 mm 0 W/m2
01:34 9.5 °C 7.1 °C 991.4 hPa SW 10.8 km/h 22.5 km/h 82% 0 mm 0 W/m2
01:39 9.5 °C 7.2 °C 991.4 hPa SW 11.6 km/h 22.5 km/h 82.6% 0 mm 0 W/m2
01:44 9.5 °C 7.2 °C 991.1 hPa SW 19.3 km/h 32.2 km/h 83% 0 mm 0 W/m2
01:49 9.5 °C 7.2 °C 991.4 hPa SW 18.7 km/h 27.4 km/h 83% 0 mm 0 W/m2
01:54 9.5 °C 7.2 °C 991.4 hPa WSW 14.5 km/h 29 km/h 83% 0 mm 0 W/m2
01:58 9.5 °C 7.2 °C 991.4 hPa SW 15.6 km/h 32.2 km/h 83% 0 mm 0 W/m2
02:04 9.4 °C 7.2 °C 991.8 hPa WSW 12.7 km/h 25.7 km/h 83% 0 mm 0 W/m2
02:09 9.4 °C 7.2 °C 991.8 hPa WSW 18 km/h 30.6 km/h 83.2% 0.25 mm 0 W/m2
02:14 9.3 °C 7.2 °C 991.8 hPa West 10.3 km/h 20.9 km/h 84% 0.51 mm 0 W/m2
02:19 9.2 °C 7.2 °C 991.8 hPa West 10.6 km/h 17.7 km/h 85% 0.51 mm 0 W/m2
02:24 9 °C 7.2 °C 991.8 hPa WSW 13.8 km/h 22.5 km/h 85.6% 1.02 mm 0 W/m2
02:29 8.9 °C 7.2 °C 991.8 hPa WSW 11.6 km/h 24.1 km/h 86% 1.27 mm 0 W/m2
02:34 8.8 °C 7.2 °C 991.8 hPa WSW 15.1 km/h 29 km/h 87% 1.52 mm 0 W/m2
02:39 8.8 °C 7.2 °C 991.8 hPa West 14.2 km/h 20.9 km/h 87% 1.52 mm 0 W/m2
02:44 8.8 °C 7.2 °C 992.1 hPa WNW 6.4 km/h 14.5 km/h 87% 1.52 mm 0 W/m2
02:49 8.8 °C 7.2 °C 992.1 hPa WNW 5.1 km/h 11.3 km/h 87% 1.52 mm 0 W/m2
02:54 8.8 °C 7.3 °C 992.1 hPa WNW 6.8 km/h 12.9 km/h 87.6% 1.52 mm 0 W/m2
02:59 8.7 °C 7.3 °C 992.4 hPa WNW 8.4 km/h 14.5 km/h 88% 1.78 mm 0 W/m2
03:04 8.6 °C 7.2 °C 992.1 hPa WNW 5.5 km/h 14.5 km/h 88.2% 2.29 mm 0 W/m2
03:09 8.5 °C 7.3 °C 992.1 hPa West 4.8 km/h 11.3 km/h 89% 3.05 mm 0 W/m2
03:13 8.4 °C 7.3 °C 992.1 hPa West 7.2 km/h 12.9 km/h 89% 2.79 mm 0 W/m2
03:19 8.4 °C 7.2 °C 992.4 hPa West 6.8 km/h 11.3 km/h 89.3% 3.56 mm 0 W/m2
03:24 8.3 °C 7.2 °C 992.4 hPa West 8.9 km/h 16.1 km/h 90% 3.81 mm 0 W/m2
03:29 8.2 °C 7.2 °C 992.4 hPa West 8 km/h 19.3 km/h 90% 4.06 mm 0 W/m2
03:34 8.1 °C 7.1 °C 992.4 hPa West 11.3 km/h 19.3 km/h 90% 3.81 mm 0 W/m2
03:39 8.1 °C 7.1 °C 992.1 hPa West 6.9 km/h 17.7 km/h 90% 3.81 mm 0 W/m2
03:44 8.2 °C 7.2 °C 992.4 hPa West 8.4 km/h 19.3 km/h 90.8% 3.81 mm 0 W/m2
03:49 8.2 °C 7.3 °C 992.4 hPa WSW 8.9 km/h 19.3 km/h 90.6% 3.81 mm 0 W/m2
03:54 8.3 °C 7.3 °C 992.8 hPa WSW 11.9 km/h 20.9 km/h 90.8% 4.06 mm 0 W/m2
03:59 8.2 °C 7.3 °C 992.4 hPa WSW 14.5 km/h 25.7 km/h 90.4% 4.32 mm 0 W/m2
04:04 8.2 °C 7.2 °C 992.4 hPa WSW 11.6 km/h 27.4 km/h 90% 3.81 mm 0 W/m2
04:09 8.2 °C 7.2 °C 992.8 hPa WSW 9.7 km/h 19.3 km/h 90% 3.3 mm 0 W/m2
04:14 8.2 °C 7.2 °C 992.8 hPa WSW 11.3 km/h 19.3 km/h 90% 3.05 mm 0 W/m2
04:19 8.1 °C 7.1 °C 992.4 hPa SW 9.8 km/h 14.5 km/h 90% 2.29 mm 0 W/m2
04:24 8.1 °C 7.1 °C 992.8 hPa SW 7.7 km/h 16.1 km/h 90% 1.52 mm 0 W/m2
04:29 8.1 °C 7.1 °C 992.8 hPa WSW 9.7 km/h 16.1 km/h 90% 1.02 mm 0 W/m2
04:34 8.1 °C 7.1 °C 992.8 hPa WSW 7.7 km/h 17.7 km/h 90% 1.02 mm 0 W/m2
04:39 8.1 °C 7.1 °C 992.8 hPa WSW 10.3 km/h 19.3 km/h 90% 1.02 mm 0 W/m2
04:44 8.1 °C 7.1 °C 992.8 hPa WSW 7.2 km/h 19.3 km/h 90% 1.02 mm 0 W/m2
04:49 8.1 °C 7.1 °C 993.1 hPa WSW 9.7 km/h 17.7 km/h 90% 1.27 mm 0 W/m2
04:54 8.1 °C 7.1 °C 993.1 hPa WSW 7.9 km/h 17.7 km/h 90% 1.27 mm 0 W/m2
04:59 7.9 °C 6.9 °C 993.1 hPa WSW 9.2 km/h 27.4 km/h 90% 1.27 mm 0 W/m2
05:04 7.9 °C 6.9 °C 993.1 hPa WSW 15.1 km/h 25.7 km/h 90% 1.27 mm 0 W/m2
05:09 7.9 °C 6.9 °C 993.1 hPa WSW 11.9 km/h 20.9 km/h 90% 1.27 mm 0 W/m2
05:14 7.9 °C 6.9 °C 992.8 hPa SW 9 km/h 19.3 km/h 90% 1.02 mm 0 W/m2
05:19 7.9 °C 6.9 °C 993.1 hPa SW 4.5 km/h 16.1 km/h 90% 1.02 mm 0 W/m2
05:24 7.9 °C 6.9 °C 993.5 hPa SW 5.8 km/h 11.3 km/h 90% 1.02 mm 0 W/m2
05:29 7.9 °C 6.9 °C 993.5 hPa WSW 8.4 km/h 19.3 km/h 90% 1.02 mm 0 W/m2
05:34 7.8 °C 6.8 °C 993.5 hPa SW 10.9 km/h 20.9 km/h 90% 1.02 mm 0 W/m2
05:39 7.9 °C 6.9 °C 993.5 hPa WSW 11.1 km/h 25.7 km/h 90% 0.76 mm 0 W/m2
05:44 7.9 °C 6.9 °C 993.5 hPa WSW 12.2 km/h 20.9 km/h 90% 1.02 mm 0 W/m2
05:49 7.9 °C 6.9 °C 993.5 hPa SW 12.9 km/h 22.5 km/h 90% 0.76 mm 0 W/m2
05:54 7.9 °C 6.9 °C 993.5 hPa SW 6 km/h 17.7 km/h 90% 0.76 mm 0 W/m2
05:59 7.8 °C 6.8 °C 993.5 hPa WSW 8.4 km/h 17.7 km/h 90% 0.51 mm 0 W/m2
06:04 7.8 °C 6.8 °C 993.8 hPa WSW 11.3 km/h 22.5 km/h 90% 0.51 mm 0 W/m2
06:09 7.8 °C 6.8 °C 993.5 hPa WSW 8.9 km/h 19.3 km/h 90% 0.51 mm 0 W/m2
06:14 7.8 °C 6.8 °C 993.5 hPa West 4.2 km/h 17.7 km/h 90% 0.51 mm 0 W/m2
06:19 7.8 °C 6.8 °C 993.5 hPa West 3.4 km/h 11.3 km/h 90% 0.25 mm 0 W/m2
06:24 7.7 °C 6.7 °C 993.5 hPa West 4.3 km/h 11.3 km/h 90% 0.25 mm 0 W/m2
06:29 7.7 °C 6.7 °C 993.8 hPa West 2.1 km/h 6.4 km/h 90% 0.51 mm 0 W/m2
06:34 7.7 °C 6.7 °C 993.8 hPa West 2.7 km/h 9.7 km/h 90% 0.51 mm 0 W/m2
06:39 7.6 °C 6.6 °C 993.8 hPa West 3.2 km/h 8 km/h 90% 0.51 mm 0 W/m2
06:44 7.6 °C 6.6 °C 993.8 hPa West 4 km/h 12.9 km/h 90% 0.51 mm 0 W/m2
06:49 7.6 °C 6.6 °C 993.8 hPa West 3.9 km/h 12.9 km/h 90% 0.25 mm 0 W/m2
06:54 7.5 °C 6.5 °C 994.1 hPa West 3.7 km/h 9.7 km/h 90% 0.25 mm 0 W/m2
06:59 7.4 °C 6.4 °C 993.8 hPa West 4.5 km/h 9.7 km/h 90% 0.25 mm 0 W/m2
07:04 7.4 °C 6.4 °C 994.1 hPa West 1.9 km/h 8 km/h 90% 0.25 mm 0 W/m2
07:09 7.3 °C 6.3 °C 994.1 hPa West 1.9 km/h 6.4 km/h 90% 0.25 mm 5 W/m2
07:14 7.3 °C 6.3 °C 994.1 hPa West 4 km/h 8 km/h 90% 0.25 mm 5 W/m2
07:19 7.3 °C 6.3 °C 994.1 hPa West 2.7 km/h 8 km/h 90% 0.25 mm 11 W/m2
07:24 7.3 °C 6.3 °C 994.1 hPa West 3.2 km/h 6.4 km/h 90% 0.25 mm 19 W/m2
07:29 7.2 °C 6.2 °C 994.1 hPa West 5.1 km/h 9.7 km/h 90% 0 mm 21 W/m2
07:34 7.3 °C 6.3 °C 994.1 hPa West 2.1 km/h 6.4 km/h 90% 0 mm 33 W/m2
07:39 7.3 °C 6.3 °C 994.5 hPa West 10.6 km/h 17.7 km/h 90% 0.25 mm 35 W/m2
07:44 7.6 °C 6.6 °C 994.5 hPa WSW 17.2 km/h 25.7 km/h 90% 0.25 mm 40 W/m2
07:49 7.7 °C 6.7 °C 994.1 hPa West 8.4 km/h 19.3 km/h 90% 0.25 mm 65 W/m2
07:53 7.7 °C 6.7 °C 994.5 hPa West 5.6 km/h 14.5 km/h 90% 0.25 mm 62 W/m2
07:59 7.7 °C 6.7 °C 994.5 hPa West 4.7 km/h 19.3 km/h 90% 0.51 mm 53 W/m2
08:04 7.7 °C 6.7 °C 994.5 hPa West 6 km/h 12.9 km/h 90% 0.51 mm 49 W/m2
08:09 7.8 °C 6.8 °C 994.5 hPa West 5.1 km/h 14.5 km/h 90% 0.51 mm 47 W/m2
08:14 7.8 °C 6.8 °C 994.8 hPa West 9.5 km/h 17.7 km/h 90% 0.51 mm 62 W/m2
08:19 7.9 °C 6.8 °C 994.5 hPa West 5.1 km/h 14.5 km/h 90% 0.51 mm 44 W/m2
08:24 7.8 °C 6.8 °C 994.5 hPa West 7.2 km/h 16.1 km/h 90% 0.51 mm 35 W/m2
08:29 7.8 °C 6.8 °C 994.5 hPa West 6 km/h 14.5 km/h 90% 0.51 mm 33 W/m2
08:34 7.8 °C 6.8 °C 994.5 hPa West 5.3 km/h 14.5 km/h 90% 0.51 mm 51 W/m2
08:39 8 °C 7 °C 994.5 hPa West 5.8 km/h 9.7 km/h 90% 0.51 mm 83 W/m2
08:44 8.1 °C 7.1 °C 994.5 hPa West 5 km/h 9.7 km/h 90% 0.25 mm 84 W/m2
08:49 8.2 °C 7.2 °C 994.5 hPa West 10.3 km/h 17.7 km/h 89.8% 0.25 mm 202 W/m2
08:54 8.4 °C 7.2 °C 994.5 hPa West 11.3 km/h 20.9 km/h 89% 0.25 mm 185 W/m2
08:59 8.6 °C 7.4 °C 994.5 hPa West 6 km/h 16.1 km/h 89% 0.25 mm 127 W/m2
09:04 8.6 °C 7.3 °C 994.5 hPa WSW 9.7 km/h 19.3 km/h 88.4% 0.25 mm 137 W/m2
09:09 8.7 °C 7.3 °C 994.5 hPa West 8.5 km/h 16.1 km/h 88% 0.25 mm 148 W/m2
09:14 8.8 °C 7.4 °C 994.5 hPa WSW 10.5 km/h 20.9 km/h 88% 0.25 mm 54 W/m2
09:19 8.7 °C 7.3 °C 994.5 hPa West 11.6 km/h 20.9 km/h 87.8% 0.25 mm 162 W/m2
09:24 8.8 °C 7.4 °C 994.5 hPa West 7.7 km/h 19.3 km/h 88% 0.25 mm 181 W/m2
09:29 9.1 °C 7.7 °C 994.8 hPa West 10 km/h 19.3 km/h 88% 0.25 mm 227 W/m2
09:34 9.3 °C 7.8 °C 994.8 hPa West 9.7 km/h 19.3 km/h 87.8% 0.25 mm 346 W/m2
09:39 9.4 °C 8 °C 994.8 hPa West 6 km/h 16.1 km/h 87.6% 0.25 mm 318 W/m2
09:44 9.4 °C 8 °C 994.8 hPa WNW 7.9 km/h 11.3 km/h 87.8% 0.25 mm 267 W/m2
09:49 9.6 °C 8.2 °C 995.1 hPa West 15.4 km/h 25.7 km/h 88% 0.25 mm 441 W/m2
09:54 9.6 °C 8 °C 995.1 hPa West 9 km/h 24.1 km/h 87% 0.25 mm 118 W/m2
09:59 9.6 °C 8 °C 995.1 hPa WSW 10.8 km/h 24.1 km/h 87% 0.51 mm 70 W/m2
10:04 9.3 °C 7.7 °C 995.1 hPa West 8.7 km/h 24.1 km/h 87% 0.25 mm 79 W/m2
10:09 9.2 °C 7.7 °C 995.1 hPa WSW 10 km/h 17.7 km/h 87.8% 0.25 mm 67 W/m2
10:14 9.1 °C 7.7 °C 995.5 hPa WSW 8.5 km/h 17.7 km/h 88% 0.51 mm 67 W/m2
10:19 9 °C 7.6 °C 995.5 hPa West 8.5 km/h 20.9 km/h 88% 1.02 mm 44 W/m2
10:24 8.8 °C 7.5 °C 995.5 hPa WNW 10.3 km/h 16.1 km/h 88.6% 1.02 mm 39 W/m2
10:29 8.7 °C 7.4 °C 995.8 hPa West 9.3 km/h 16.1 km/h 89% 1.02 mm 44 W/m2
10:34 8.4 °C 7.2 °C 995.8 hPa West 7.6 km/h 17.7 km/h 89% 1.52 mm 49 W/m2
10:39 8.3 °C 7.1 °C 995.8 hPa West 14.2 km/h 27.4 km/h 89.2% 1.52 mm 39 W/m2
10:44 8.2 °C 7.2 °C 995.8 hPa West 9.5 km/h 17.7 km/h 90% 1.52 mm 54 W/m2
10:49 8.2 °C 7.2 °C 995.8 hPa WNW 9.7 km/h 14.5 km/h 90% 1.52 mm 204 W/m2
10:54 8.3 °C 7.2 °C 995.8 hPa West 6.3 km/h 14.5 km/h 90% 1.52 mm 244 W/m2
10:59 8.5 °C 7.4 °C 995.8 hPa West 6.9 km/h 12.9 km/h 90% 1.52 mm 297 W/m2
11:04 8.7 °C 7.6 °C 995.8 hPa West 12.2 km/h 17.7 km/h 90% 1.52 mm 141 W/m2
11:09 8.7 °C 7.6 °C 996.2 hPa WNW 12.9 km/h 25.7 km/h 90% 1.78 mm 37 W/m2
11:14 8.5 °C 7.4 °C 996.2 hPa WNW 8.5 km/h 19.3 km/h 90% 1.52 mm 32 W/m2
11:19 8.3 °C 7.2 °C 996.2 hPa WNW 9.7 km/h 20.9 km/h 90% 1.52 mm 69 W/m2
11:24 8.3 °C 7.2 °C 996.2 hPa WNW 8 km/h 20.9 km/h 90% 1.27 mm 185 W/m2
11:29 8.4 °C 7.3 °C 996.2 hPa WNW 8.7 km/h 14.5 km/h 90% 1.27 mm 323 W/m2
11:34 8.5 °C 7.4 °C 996.2 hPa WNW 7.7 km/h 12.9 km/h 90% 1.27 mm 429 W/m2
11:39 8.6 °C 7.5 °C 996.2 hPa WNW 10.9 km/h 20.9 km/h 90% 1.02 mm 109 W/m2
11:44 8.6 °C 7.4 °C 996.2 hPa West 15.1 km/h 24.1 km/h 90% 1.27 mm 23 W/m2
11:49 8.4 °C 7.3 °C 996.5 hPa WSW 12.9 km/h 24.1 km/h 90% 1.52 mm 40 W/m2
11:54 8.3 °C 7.2 °C 996.2 hPa WSW 9.3 km/h 24.1 km/h 90% 1.78 mm 67 W/m2
11:59 8.2 °C 7.1 °C 996.2 hPa WSW 10.6 km/h 20.9 km/h 89.4% 2.03 mm 116 W/m2
12:04 8.3 °C 7.1 °C 996.2 hPa West 11.3 km/h 20.9 km/h 89.6% 2.29 mm 244 W/m2
12:09 8.5 °C 7.4 °C 996.2 hPa West 6.9 km/h 17.7 km/h 90% 2.29 mm 285 W/m2
12:14 8.8 °C 7.7 °C 996.2 hPa WNW 6.3 km/h 14.5 km/h 90% 1.78 mm 264 W/m2
12:24 9.1 °C 7.9 °C 996.5 hPa West 11.4 km/h 20.9 km/h 89% 2.29 mm 56 W/m2
12:29 8.6 °C 7.4 °C 996.5 hPa West 17.1 km/h 30.6 km/h 89% 2.29 mm 54 W/m2
12:34 8.4 °C 7.1 °C 996.2 hPa West 8.9 km/h 19.3 km/h 88.6% 2.54 mm 369 W/m2
12:39 8.4 °C 7.2 °C 996.2 hPa West 4.7 km/h 16.1 km/h 89% 2.29 mm 369 W/m2
12:44 8.6 °C 7.3 °C 996.2 hPa West 6 km/h 12.9 km/h 89% 2.29 mm 297 W/m2
12:49 8.8 °C 7.6 °C 996.2 hPa West 6.8 km/h 17.7 km/h 89% 2.29 mm 165 W/m2
12:54 8.9 °C 7.7 °C 996.2 hPa West 9.7 km/h 20.9 km/h 89% 1.78 mm 123 W/m2
12:59 8.9 °C 7.7 °C 996.2 hPa West 9.3 km/h 17.7 km/h 89% 1.52 mm 98 W/m2
13:04 9 °C 7.8 °C 996.2 hPa WSW 6.4 km/h 14.5 km/h 88.8% 1.52 mm 204 W/m2
13:09 9.1 °C 7.7 °C 996.2 hPa WSW 7.1 km/h 12.9 km/h 88% 1.27 mm 113 W/m2
13:14 9 °C 7.6 °C 996.2 hPa WSW 7.1 km/h 14.5 km/h 88% 1.27 mm 69 W/m2
13:19 8.9 °C 7.6 °C 996.2 hPa WSW 13.8 km/h 24.1 km/h 88% 1.27 mm 83 W/m2
13:24 9.1 °C 7.6 °C 995.8 hPa WSW 13.2 km/h 20.9 km/h 87.4% 1.27 mm 135 W/m2
13:29 9.2 °C 7.6 °C 995.8 hPa West 9.8 km/h 16.1 km/h 87% 0.51 mm 399 W/m2
13:33 9.5 °C 7.9 °C 995.8 hPa West 6.8 km/h 16.1 km/h 87% 0.25 mm 383 W/m2
13:38 9.8 °C 8.2 °C 995.8 hPa WSW 5.8 km/h 14.5 km/h 86.7% 0.25 mm 332 W/m2
13:44 10.2 °C 8.4 °C 995.8 hPa WSW 9.8 km/h 16.1 km/h 85.8% 0 mm 343 W/m2
13:49 10.3 °C 8.4 °C 995.8 hPa WSW 7.7 km/h 16.1 km/h 85% 0 mm 290 W/m2
13:54 10.4 °C 8.4 °C 995.8 hPa WSW 9.3 km/h 16.1 km/h 84.5% 0 mm 236 W/m2
13:59 10.4 °C 8.3 °C 995.8 hPa WSW 7.7 km/h 16.1 km/h 83.6% 0 mm 294 W/m2
14:04 10.6 °C 8.2 °C 995.8 hPa WSW 6.6 km/h 14.5 km/h 82.8% 0 mm 290 W/m2
14:09 10.7 °C 8.3 °C 995.8 hPa SW 9 km/h 12.9 km/h 82.4% 0 mm 304 W/m2
14:14 10.7 °C 8.2 °C 995.8 hPa SW 6.6 km/h 14.5 km/h 82% 0 mm 294 W/m2
14:19 10.8 °C 8.3 °C 995.8 hPa WSW 8.7 km/h 17.7 km/h 81.4% 0 mm 264 W/m2
14:24 10.8 °C 8.2 °C 995.8 hPa WSW 6.9 km/h 17.7 km/h 81% 0 mm 262 W/m2
14:29 10.8 °C 8.3 °C 995.8 hPa WSW 8.5 km/h 16.1 km/h 81.2% 0 mm 216 W/m2
14:34 10.8 °C 8.2 °C 995.8 hPa WSW 9.7 km/h 17.7 km/h 81% 0 mm 204 W/m2
14:39 10.7 °C 7.9 °C 995.8 hPa SW 12.4 km/h 19.3 km/h 80.3% 0 mm 160 W/m2
14:44 10.7 °C 7.9 °C 995.8 hPa WSW 11.6 km/h 20.9 km/h 80.6% 0 mm 181 W/m2
14:49 10.6 °C 7.9 °C 995.8 hPa SW 10.9 km/h 20.9 km/h 80.8% 0 mm 163 W/m2
14:54 10.6 °C 7.9 °C 995.8 hPa WSW 7.4 km/h 16.1 km/h 81.2% 0 mm 211 W/m2
14:59 10.6 °C 8 °C 995.8 hPa WSW 7.7 km/h 16.1 km/h 81.2% 0 mm 202 W/m2
15:04 10.6 °C 8.1 °C 995.8 hPa WSW 9.7 km/h 12.9 km/h 82% 0 mm 199 W/m2
15:09 10.6 °C 8.1 °C 995.8 hPa WSW 10.6 km/h 17.7 km/h 82% 0 mm 185 W/m2
15:13 10.6 °C 8.1 °C 995.8 hPa WSW 7.6 km/h 17.7 km/h 82% 0 mm 171 W/m2
15:19 10.6 °C 8.1 °C 995.8 hPa WSW 6 km/h 17.7 km/h 82% 0 mm 158 W/m2
15:24 10.7 °C 8.2 °C 995.8 hPa SW 5.1 km/h 11.3 km/h 82% 0 mm 146 W/m2
15:29 10.7 °C 8.2 °C 995.8 hPa SW 8 km/h 12.9 km/h 82% 0 mm 130 W/m2
15:34 10.7 °C 8.2 °C 995.8 hPa WSW 3.9 km/h 12.9 km/h 82% 0 mm 118 W/m2
15:39 10.7 °C 8.2 °C 995.8 hPa WSW 4.3 km/h 11.3 km/h 82% 0 mm 104 W/m2
15:44 10.7 °C 8.2 °C 995.8 hPa WSW 8.2 km/h 12.9 km/h 82% 0 mm 90 W/m2
15:49 10.6 °C 8.1 °C 995.8 hPa WSW 4.8 km/h 12.9 km/h 82% 0 mm 76 W/m2
15:54 10.4 °C 7.9 °C 995.8 hPa WSW 6.6 km/h 12.9 km/h 82% 0 mm 62 W/m2
15:59 10.3 °C 7.8 °C 995.8 hPa WSW 5.8 km/h 12.9 km/h 81.2% 0 mm 46 W/m2
16:04 10.2 °C 7.8 °C 995.8 hPa WSW 9.3 km/h 14.5 km/h 81.6% 0 mm 35 W/m2
16:09 10 °C 7.6 °C 995.8 hPa WSW 7.9 km/h 14.5 km/h 82% 0 mm 25 W/m2
16:14 9.8 °C 7.4 °C 995.8 hPa WSW 8.4 km/h 14.5 km/h 82% 0 mm 21 W/m2
16:19 9.6 °C 7.2 °C 995.8 hPa West 5.1 km/h 16.1 km/h 82% 0 mm 12 W/m2
16:24 9.4 °C 7.1 °C 996.2 hPa West 8.4 km/h 16.1 km/h 82.8% 0 mm 11 W/m2
16:29 9.2 °C 7 °C 996.2 hPa West 6.1 km/h 11.3 km/h 83% 0 mm 9 W/m2
16:34 9.1 °C 6.9 °C 996.2 hPa West 5.8 km/h 11.3 km/h 83.8% 0 mm 7 W/m2
16:39 8.9 °C 6.8 °C 996.2 hPa West 4.3 km/h 11.3 km/h 84% 0 mm 5 W/m2
16:44 8.8 °C 6.8 °C 996.2 hPa West 2.4 km/h 8 km/h 84.2% 0 mm 0 W/m2
16:49 8.7 °C 6.7 °C 996.2 hPa West 3.9 km/h 8 km/h 84.4% 0 mm 0 W/m2
16:54 8.6 °C 6.7 °C 996.2 hPa West 3.2 km/h 8 km/h 85% 0 mm 0 W/m2
16:59 8.6 °C 6.7 °C 996.2 hPa West 2.7 km/h 6.4 km/h 85% 0 mm 0 W/m2
17:04 8.4 °C 6.5 °C 996.2 hPa West 3.5 km/h 6.4 km/h 85% 0 mm 0 W/m2
17:09 8.3 °C 6.6 °C 996.2 hPa West 0.8 km/h 6.4 km/h 86% 0 mm 0 W/m2
17:14 8.2 °C 6.5 °C 996.2 hPa West 1.1 km/h 4.8 km/h 86% 0 mm 0 W/m2
17:19 8.1 °C 6.5 °C 996.2 hPa West 0.6 km/h 3.2 km/h 86.4% 0 mm 0 W/m2
17:24 8.1 °C 6.6 °C 996.5 hPa West 3.5 km/h 8 km/h 87% 0 mm 0 W/m2
17:29 7.9 °C 6.4 °C 996.5 hPa West 4.2 km/h 8 km/h 87% 0 mm 0 W/m2
17:34 7.8 °C 6.3 °C 996.5 hPa West 2.6 km/h 4.8 km/h 87% 0 mm 0 W/m2
17:39 7.8 °C 6.4 °C 996.5 hPa West 1.8 km/h 3.2 km/h 87.8% 0 mm 0 W/m2
17:44 7.7 °C 6.3 °C 996.8 hPa West 1.3 km/h 4.8 km/h 88% 0 mm 0 W/m2
17:49 7.7 °C 6.3 °C 996.8 hPa West 0.3 km/h 6.4 km/h 88% 0 mm 0 W/m2
17:54 7.7 °C 6.3 °C 996.8 hPa West 1.4 km/h 4.8 km/h 88% 0 mm 0 W/m2
17:59 7.6 °C 6.2 °C 996.8 hPa West 1.3 km/h 3.2 km/h 88% 0 mm 0 W/m2
18:04 7.5 °C 6.1 °C 996.8 hPa West 0.3 km/h 3.2 km/h 88% 0 mm 0 W/m2
18:09 7.4 °C 6 °C 996.8 hPa West 1 km/h 4.8 km/h 88% 0 mm 0 W/m2
18:14 7.2 °C 5.9 °C 996.8 hPa West 1.9 km/h 4.8 km/h 88.6% 0 mm 0 W/m2
18:19 7.1 °C 5.8 °C 996.8 hPa West 0.8 km/h 4.8 km/h 88.8% 0 mm 0 W/m2
18:24 7 °C 5.8 °C 996.8 hPa West 1 km/h 4.8 km/h 89% 0 mm 0 W/m2
18:29 6.8 °C 5.7 °C 996.8 hPa Calm   1.6 km/h 89% 0 mm 0 W/m2
18:34 6.8 °C 5.6 °C 996.8 hPa West 1.4 km/h 4.8 km/h 89% 0 mm 0 W/m2
18:39 6.7 °C 5.5 °C 997.2 hPa West 1.9 km/h 4.8 km/h 89.2% 0 mm 0 W/m2
18:44 6.5 °C 5.3 °C 997.2 hPa West 1.3 km/h 3.2 km/h 89.2% 0 mm 0 W/m2
18:49 6.4 °C 5.4 °C 997.2 hPa West 2.6 km/h 3.2 km/h 90% 0 mm 0 W/m2
18:54 6.3 °C 5.3 °C 997.2 hPa West 1.1 km/h 3.2 km/h 90% 0 mm 0 W/m2
18:59 6.2 °C 5.2 °C 997.2 hPa West 0.8 km/h 3.2 km/h 90% 0 mm 0 W/m2
19:04 6.2 °C 5.2 °C 997.2 hPa Calm     90% 0 mm 0 W/m2
19:09 5.9 °C 4.9 °C 997.5 hPa West 0.8 km/h 3.2 km/h 90% 0 mm 0 W/m2
19:14 5.8 °C 4.8 °C 997.5 hPa West 0.3 km/h 3.2 km/h 90% 0 mm 0 W/m2
19:19 5.7 °C 4.8 °C 997.5 hPa Calm   1.6 km/h 91% 0 mm 0 W/m2
19:24 5.7 °C 4.7 °C 997.5 hPa West 1.3 km/h 4.8 km/h 91% 0 mm 0 W/m2
19:29 5.6 °C 4.7 °C 997.5 hPa West 2.9 km/h 4.8 km/h 91% 0 mm 0 W/m2
19:34 5.6 °C 4.7 °C 997.5 hPa West 2.9 km/h 4.8 km/h 91% 0 mm 0 W/m2
19:39 5.6 °C 4.7 °C 997.5 hPa West 0.6 km/h 3.2 km/h 91% 0 mm 0 W/m2
19:44 5.6 °C 4.7 °C 997.5 hPa West 0.3 km/h 1.6 km/h 91% 0 mm 0 W/m2
19:49 5.4 °C 4.6 °C 997.5 hPa Calm   1.6 km/h 91% 0 mm 0 W/m2
19:54 5.3 °C 4.4 °C 997.5 hPa Calm     91% 0 mm 0 W/m2
19:59 5.2 °C 4.2 °C 997.5 hPa West 1.9 km/h 3.2 km/h 91% 0 mm 0 W/m2
20:04 5.1 °C 4.3 °C 997.9 hPa West 1.4 km/h 3.2 km/h 91.2% 0 mm 0 W/m2
20:09 5.1 °C 4.3 °C 997.9 hPa Calm   3.2 km/h 91.4% 0 mm 0 W/m2
20:14 5.1 °C 4.3 °C 997.9 hPa Calm     92% 0 mm 0 W/m2
20:19 5 °C 4.3 °C 997.9 hPa Calm     92% 0 mm 0 W/m2
20:24 4.9 °C 4.2 °C 997.9 hPa Calm     92% 0 mm 0 W/m2
20:29 4.9 °C 4.2 °C 997.9 hPa Calm     92% 0 mm 0 W/m2
20:34 4.9 °C 4.2 °C 997.9 hPa Calm     92% 0 mm 0 W/m2
20:39 4.8 °C 4.1 °C 997.9 hPa Calm     92% 0 mm 0 W/m2
20:44 4.7 °C 4 °C 997.9 hPa Calm     92% 0 mm 0 W/m2
20:49 4.7 °C 4 °C 997.9 hPa Calm     92% 0 mm 0 W/m2
20:54 4.7 °C 4 °C 997.9 hPa Calm     92% 0 mm 0 W/m2
20:59 4.6 °C 3.9 °C 997.9 hPa Calm     92% 0 mm 0 W/m2
21:04 4.5 °C 3.8 °C 997.9 hPa Calm     92% 0 mm 0 W/m2
21:09 4.4 °C 3.7 °C 997.9 hPa Calm     92% 0 mm 0 W/m2
21:14 4.3 °C 3.7 °C 997.9 hPa Calm     92% 0 mm 0 W/m2
21:19 4.3 °C 3.6 °C 997.9 hPa Calm     92% 0 mm 0 W/m2
21:24 4.3 °C 3.7 °C 997.9 hPa Calm     92.8% 0 mm 0 W/m2
21:29 4.2 °C 3.6 °C 997.9 hPa Calm     92.2% 0 mm 0 W/m2
21:34 4.2 °C 3.4 °C 997.9 hPa Calm     92% 0 mm 0 W/m2
21:39 4.1 °C 3.5 °C 997.9 hPa West 0.8 km/h 3.2 km/h 92.6% 0 mm 0 W/m2
21:44 4.1 °C 3.6 °C 998.2 hPa Calm   1.6 km/h 93% 0 mm 0 W/m2
21:49 4.1 °C 3.6 °C 998.2 hPa West 0.8 km/h 3.2 km/h 93% 0 mm 0 W/m2
21:54 4.1 °C 3.6 °C 998.2 hPa Calm   3.2 km/h 93% 0 mm 0 W/m2
21:59 4.1 °C 3.6 °C 998.2 hPa West 0.6 km/h 3.2 km/h 93% 0 mm 0 W/m2
22:03 4 °C 3.5 °C 998.2 hPa Calm     93% 0 mm 0 W/m2
22:09 3.9 °C 3.4 °C 998.2 hPa Calm     93% 0 mm 0 W/m2
22:14 3.9 °C 3.4 °C 998.2 hPa Calm     93% 0 mm 0 W/m2
22:19 3.8 °C 3.3 °C 998.2 hPa Calm   1.6 km/h 93% 0 mm 0 W/m2
22:24 3.8 °C 3.3 °C 998.2 hPa Calm     93% 0 mm 0 W/m2
22:29 3.9 °C 3.4 °C 998.2 hPa Calm     93% 0 mm 0 W/m2
22:34 3.9 °C 3.4 °C 998.2 hPa Calm     93% 0 mm 0 W/m2
22:39 3.9 °C 3.4 °C 998.2 hPa Calm     93% 0 mm 0 W/m2
22:44 3.9 °C 3.4 °C 998.2 hPa Calm     93% 0 mm 0 W/m2
22:49 3.9 °C 3.4 °C 998.2 hPa Calm     93% 0 mm 0 W/m2
22:54 3.8 °C 3.3 °C 998.5 hPa Calm     93% 0 mm 0 W/m2
22:59 3.8 °C 3.3 °C 998.5 hPa Calm     93% 0 mm 0 W/m2
23:04 3.8 °C 3.3 °C 998.5 hPa Calm     93% 0 mm 0 W/m2
23:09 3.8 °C 3.3 °C 998.2 hPa Calm     93% 0 mm 0 W/m2
23:14 3.8 °C 3.3 °C 998.2 hPa Calm     93% 0 mm 0 W/m2
23:19 3.8 °C 3.3 °C 998.2 hPa Calm     93% 0 mm 0 W/m2
23:24 3.8 °C 3.4 °C 998.2 hPa West 1.3 km/h 3.2 km/h 93.8% 0 mm 0 W/m2
23:29 3.9 °C 3.4 °C 998.2 hPa Calm   3.2 km/h 93.4% 0 mm 0 W/m2
23:34 4.1 °C 3.6 °C 998.2 hPa Calm     93% 0 mm 0 W/m2
23:39 4.2 °C 3.7 °C 998.2 hPa Calm     93.4% 0 mm 0 W/m2
23:44 4.2 °C 3.8 °C 998.2 hPa Calm     94% 0 mm 0 W/m2
23:49 4.2 °C 3.8 °C 998.2 hPa West 1 km/h 3.2 km/h 94% 0 mm 0 W/m2
23:54 4.3 °C 3.9 °C 998.2 hPa Calm     94% 0 mm 0 W/m2
23:59 4.3 °C 3.9 °C 998.2 hPa Calm     94% 0 mm 0 W/m2
Bath Spa Weather
Compliments of Weather Underground - 2 mb